sensor_id;sensor_type;location;lat;lon;timestamp;pressure;altitude;pressure_sealevel;temperature
24639;BMP180;1641;51.306;12.384;2023-03-01T00:01:35;101505.00;;;1.20
24639;BMP180;1641;51.306;12.384;2023-03-01T00:04:00;101506.00;;;1.50
24639;BMP180;1641;51.306;12.384;2023-03-01T00:06:26;101487.00;;;1.40
24639;BMP180;1641;51.306;12.384;2023-03-01T00:08:52;101488.00;;;0.90
24639;BMP180;1641;51.306;12.384;2023-03-01T00:11:24;101497.00;;;0.50
24639;BMP180;1641;51.306;12.384;2023-03-01T00:13:52;101497.00;;;0.50
24639;BMP180;1641;51.306;12.384;2023-03-01T00:16:23;101500.00;;;0.60
24639;BMP180;1641;51.306;12.384;2023-03-01T00:18:49;101506.00;;;0.60
24639;BMP180;1641;51.306;12.384;2023-03-01T00:21:14;101495.00;;;0.80
24639;BMP180;1641;51.306;12.384;2023-03-01T00:23:42;101493.00;;;1.00
24639;BMP180;1641;51.306;12.384;2023-03-01T00:26:10;101500.00;;;1.10
24639;BMP180;1641;51.306;12.384;2023-03-01T00:28:36;101499.00;;;1.00
24639;BMP180;1641;51.306;12.384;2023-03-01T00:31:07;101478.00;;;0.90
24639;BMP180;1641;51.306;12.384;2023-03-01T00:33:33;101499.00;;;0.70
24639;BMP180;1641;51.306;12.384;2023-03-01T00:35:59;101483.00;;;0.70
24639;BMP180;1641;51.306;12.384;2023-03-01T00:38:24;101488.00;;;0.70
24639;BMP180;1641;51.306;12.384;2023-03-01T00:40:49;101490.00;;;0.80
24639;BMP180;1641;51.306;12.384;2023-03-01T00:43:15;101478.00;;;0.70
24639;BMP180;1641;51.306;12.384;2023-03-01T00:45:40;101470.00;;;0.80
24639;BMP180;1641;51.306;12.384;2023-03-01T00:48:05;101446.00;;;1.00
24639;BMP180;1641;51.306;12.384;2023-03-01T00:50:31;101441.00;;;1.20
24639;BMP180;1641;51.306;12.384;2023-03-01T00:52:56;101460.00;;;1.10
24639;BMP180;1641;51.306;12.384;2023-03-01T00:55:22;101470.00;;;1.00
24639;BMP180;1641;51.306;12.384;2023-03-01T00:57:48;101459.00;;;1.20
24639;BMP180;1641;51.306;12.384;2023-03-01T01:00:13;101469.00;;;1.30
24639;BMP180;1641;51.306;12.384;2023-03-01T01:02:40;101468.00;;;1.30
24639;BMP180;1641;51.306;12.384;2023-03-01T01:05:06;101466.00;;;1.30
24639;BMP180;1641;51.306;12.384;2023-03-01T01:07:31;101425.00;;;1.30
24639;BMP180;1641;51.306;12.384;2023-03-01T01:09:56;101456.00;;;0.80
24639;BMP180;1641;51.306;12.384;2023-03-01T01:12:22;101458.00;;;0.90
24639;BMP180;1641;51.306;12.384;2023-03-01T01:14:47;101426.00;;;1.00
24639;BMP180;1641;51.306;12.384;2023-03-01T01:17:12;101468.00;;;0.80
24639;BMP180;1641;51.306;12.384;2023-03-01T01:19:38;101420.00;;;0.80
24639;BMP180;1641;51.306;12.384;2023-03-01T01:22:03;101405.00;;;0.70
24639;BMP180;1641;51.306;12.384;2023-03-01T01:24:29;101424.00;;;0.80
24639;BMP180;1641;51.306;12.384;2023-03-01T01:26:54;101422.00;;;0.60
24639;BMP180;1641;51.306;12.384;2023-03-01T01:29:19;101439.00;;;0.80
24639;BMP180;1641;51.306;12.384;2023-03-01T01:31:45;101434.00;;;0.80
24639;BMP180;1641;51.306;12.384;2023-03-01T01:34:17;101437.00;;;0.80
24639;BMP180;1641;51.306;12.384;2023-03-01T01:36:43;101438.00;;;0.80
24639;BMP180;1641;51.306;12.384;2023-03-01T01:39:08;101428.00;;;0.80
24639;BMP180;1641;51.306;12.384;2023-03-01T01:41:39;101438.00;;;0.90
24639;BMP180;1641;51.306;12.384;2023-03-01T01:44:16;101442.00;;;0.90
24639;BMP180;1641;51.306;12.384;2023-03-01T01:47:20;101432.00;;;0.80
24639;BMP180;1641;51.306;12.384;2023-03-01T01:49:53;101385.00;;;0.70
24639;BMP180;1641;51.306;12.384;2023-03-01T01:52:27;101408.00;;;0.60
24639;BMP180;1641;51.306;12.384;2023-03-01T01:54:58;101409.00;;;0.50
24639;BMP180;1641;51.306;12.384;2023-03-01T01:57:31;101415.00;;;0.50
24639;BMP180;1641;51.306;12.384;2023-03-01T02:00:10;101416.00;;;0.50
24639;BMP180;1641;51.306;12.384;2023-03-01T02:02:39;101426.00;;;0.50
24639;BMP180;1641;51.306;12.384;2023-03-01T02:05:12;101428.00;;;0.60
24639;BMP180;1641;51.306;12.384;2023-03-01T02:07:40;101408.00;;;0.40
24639;BMP180;1641;51.306;12.384;2023-03-01T02:10:07;101404.00;;;0.30
24639;BMP180;1641;51.306;12.384;2023-03-01T02:12:33;101410.00;;;0.40
24639;BMP180;1641;51.306;12.384;2023-03-01T02:14:59;101412.00;;;0.70
24639;BMP180;1641;51.306;12.384;2023-03-01T02:17:24;101409.00;;;0.60
24639;BMP180;1641;51.306;12.384;2023-03-01T02:20:12;101402.00;;;0.50
24639;BMP180;1641;51.306;12.384;2023-03-01T02:22:39;101403.00;;;0.40
24639;BMP180;1641;51.306;12.384;2023-03-01T02:30:18;101401.00;;;0.60
24639;BMP180;1641;51.306;12.384;2023-03-01T02:32:44;101398.00;;;0.60
24639;BMP180;1641;51.306;12.384;2023-03-01T02:35:12;101403.00;;;0.50
24639;BMP180;1641;51.306;12.384;2023-03-01T02:37:40;101395.00;;;0.50
24639;BMP180;1641;51.306;12.384;2023-03-01T02:40:12;101405.00;;;0.50
24639;BMP180;1641;51.306;12.384;2023-03-01T02:42:46;101405.00;;;0.50
24639;BMP180;1641;51.306;12.384;2023-03-01T02:45:15;101404.00;;;0.40
24639;BMP180;1641;51.306;12.384;2023-03-01T02:47:40;101408.00;;;0.40
24639;BMP180;1641;51.306;12.384;2023-03-01T02:52:57;101405.00;;;0.40
24639;BMP180;1641;51.306;12.384;2023-03-01T02:55:25;101397.00;;;0.50
24639;BMP180;1641;51.306;12.384;2023-03-01T02:57:52;101410.00;;;0.40
24639;BMP180;1641;51.306;12.384;2023-03-01T03:00:21;101406.00;;;0.40
24639;BMP180;1641;51.306;12.384;2023-03-01T03:02:52;101418.00;;;0.30
24639;BMP180;1641;51.306;12.384;2023-03-01T03:05:21;101419.00;;;0.40
24639;BMP180;1641;51.306;12.384;2023-03-01T03:07:48;101413.00;;;0.40
24639;BMP180;1641;51.306;12.384;2023-03-01T03:10:20;101398.00;;;0.60
24639;BMP180;1641;51.306;12.384;2023-03-01T03:12:50;101394.00;;;0.50
24639;BMP180;1641;51.306;12.384;2023-03-01T03:15:16;101405.00;;;0.40
24639;BMP180;1641;51.306;12.384;2023-03-01T03:17:43;101389.00;;;0.40
24639;BMP180;1641;51.306;12.384;2023-03-01T03:20:11;101402.00;;;0.60
24639;BMP180;1641;51.306;12.384;2023-03-01T03:22:39;101390.00;;;0.20
24639;BMP180;1641;51.306;12.384;2023-03-01T03:25:06;101385.00;;;0.20
24639;BMP180;1641;51.306;12.384;2023-03-01T03:27:36;101380.00;;;0.40
24639;BMP180;1641;51.306;12.384;2023-03-01T03:30:03;101381.00;;;0.20
24639;BMP180;1641;51.306;12.384;2023-03-01T03:32:29;101384.00;;;0.10
24639;BMP180;1641;51.306;12.384;2023-03-01T03:34:55;101383.00;;;0.10
24639;BMP180;1641;51.306;12.384;2023-03-01T03:37:23;101381.00;;;0.30
24639;BMP180;1641;51.306;12.384;2023-03-01T03:40:07;101381.00;;;0.40
24639;BMP180;1641;51.306;12.384;2023-03-01T03:42:43;101371.00;;;0.40
24639;BMP180;1641;51.306;12.384;2023-03-01T03:45:08;101356.00;;;0.40
24639;BMP180;1641;51.306;12.384;2023-03-01T03:47:33;101365.00;;;0.40
24639;BMP180;1641;51.306;12.384;2023-03-01T03:49:58;101364.00;;;0.30
24639;BMP180;1641;51.306;12.384;2023-03-01T03:52:24;101360.00;;;0.10
24639;BMP180;1641;51.306;12.384;2023-03-01T03:54:49;101357.00;;;-0.10
24639;BMP180;1641;51.306;12.384;2023-03-01T03:57:17;101365.00;;;-0.40
24639;BMP180;1641;51.306;12.384;2023-03-01T03:59:42;101348.00;;;-0.40
24639;BMP180;1641;51.306;12.384;2023-03-01T04:02:07;101361.00;;;-0.30
24639;BMP180;1641;51.306;12.384;2023-03-01T04:04:34;101364.00;;;-0.20
24639;BMP180;1641;51.306;12.384;2023-03-01T04:06:59;101364.00;;;-0.30
24639;BMP180;1641;51.306;12.384;2023-03-01T04:09:24;101368.00;;;-0.30
24639;BMP180;1641;51.306;12.384;2023-03-01T04:11:49;101368.00;;;-0.40
24639;BMP180;1641;51.306;12.384;2023-03-01T04:14:15;101372.00;;;-0.40
24639;BMP180;1641;51.306;12.384;2023-03-01T04:16:41;101372.00;;;-0.70
24639;BMP180;1641;51.306;12.384;2023-03-01T04:19:06;101351.00;;;-0.60
24639;BMP180;1641;51.306;12.384;2023-03-01T04:21:31;101350.00;;;-0.30
24639;BMP180;1641;51.306;12.384;2023-03-01T04:23:57;101348.00;;;-0.10
24639;BMP180;1641;51.306;12.384;2023-03-01T04:26:25;101349.00;;;-0.10
24639;BMP180;1641;51.306;12.384;2023-03-01T04:28:51;101351.00;;;-0.20
24639;BMP180;1641;51.306;12.384;2023-03-01T04:31:20;101297.00;;;-0.30
24639;BMP180;1641;51.306;12.384;2023-03-01T04:33:47;101351.00;;;-0.30
24639;BMP180;1641;51.306;12.384;2023-03-01T04:36:14;101346.00;;;-0.50
24639;BMP180;1641;51.306;12.384;2023-03-01T04:38:40;101350.00;;;-0.20
24639;BMP180;1641;51.306;12.384;2023-03-01T04:41:08;101359.00;;;-0.20
24639;BMP180;1641;51.306;12.384;2023-03-01T04:43:34;101321.00;;;-0.20
24639;BMP180;1641;51.306;12.384;2023-03-01T04:46:01;101365.00;;;0.00
24639;BMP180;1641;51.306;12.384;2023-03-01T04:48:30;101362.00;;;0.00
24639;BMP180;1641;51.306;12.384;2023-03-01T04:51:00;101350.00;;;-0.10
24639;BMP180;1641;51.306;12.384;2023-03-01T04:53:25;101359.00;;;-0.20
24639;BMP180;1641;51.306;12.384;2023-03-01T04:55:51;101330.00;;;-0.50
24639;BMP180;1641;51.306;12.384;2023-03-01T04:58:16;101362.00;;;-0.70
24639;BMP180;1641;51.306;12.384;2023-03-01T05:00:42;101333.00;;;-0.90
24639;BMP180;1641;51.306;12.384;2023-03-01T05:03:08;101347.00;;;-1.00
24639;BMP180;1641;51.306;12.384;2023-03-01T05:05:35;101343.00;;;-1.00
24639;BMP180;1641;51.306;12.384;2023-03-01T05:08:04;101342.00;;;-1.10
24639;BMP180;1641;51.306;12.384;2023-03-01T05:10:32;101351.00;;;-1.20
24639;BMP180;1641;51.306;12.384;2023-03-01T05:12:58;101357.00;;;-1.10
24639;BMP180;1641;51.306;12.384;2023-03-01T05:15:25;101358.00;;;-1.10
24639;BMP180;1641;51.306;12.384;2023-03-01T05:17:53;101358.00;;;-1.50
24639;BMP180;1641;51.306;12.384;2023-03-01T05:20:19;101352.00;;;-1.60
24639;BMP180;1641;51.306;12.384;2023-03-01T05:22:48;101344.00;;;-1.50
24639;BMP180;1641;51.306;12.384;2023-03-01T05:25:13;101347.00;;;-1.20
24639;BMP180;1641;51.306;12.384;2023-03-01T05:27:39;101352.00;;;-1.50
24639;BMP180;1641;51.306;12.384;2023-03-01T05:30:04;101342.00;;;-1.20
24639;BMP180;1641;51.306;12.384;2023-03-01T05:32:42;101344.00;;;-1.00
24639;BMP180;1641;51.306;12.384;2023-03-01T05:35:09;101285.00;;;-0.90
24639;BMP180;1641;51.306;12.384;2023-03-01T05:37:38;101337.00;;;-1.10
24639;BMP180;1641;51.306;12.384;2023-03-01T05:40:08;101226.00;;;-1.30
24639;BMP180;1641;51.306;12.384;2023-03-01T05:42:41;101335.00;;;-1.40
24639;BMP180;1641;51.306;12.384;2023-03-01T05:45:06;101347.00;;;-1.40
24639;BMP180;1641;51.306;12.384;2023-03-01T05:47:41;101345.00;;;-1.60
24639;BMP180;1641;51.306;12.384;2023-03-01T05:50:18;101348.00;;;-1.50
24639;BMP180;1641;51.306;12.384;2023-03-01T05:52:48;101316.00;;;-1.20
24639;BMP180;1641;51.306;12.384;2023-03-01T05:55:18;101308.00;;;-0.90
24639;BMP180;1641;51.306;12.384;2023-03-01T05:57:47;101345.00;;;-0.70
24639;BMP180;1641;51.306;12.384;2023-03-01T06:00:14;101311.00;;;-0.50
24639;BMP180;1641;51.306;12.384;2023-03-01T06:02:42;101352.00;;;-0.30
24639;BMP180;1641;51.306;12.384;2023-03-01T06:05:12;101362.00;;;-0.30
24639;BMP180;1641;51.306;12.384;2023-03-01T06:07:38;101362.00;;;-0.20
24639;BMP180;1641;51.306;12.384;2023-03-01T06:10:05;101361.00;;;-0.30
24639;BMP180;1641;51.306;12.384;2023-03-01T06:12:34;101375.00;;;-0.30
24639;BMP180;1641;51.306;12.384;2023-03-01T06:15:04;101369.00;;;-0.50
24639;BMP180;1641;51.306;12.384;2023-03-01T06:17:34;101370.00;;;-0.70
24639;BMP180;1641;51.306;12.384;2023-03-01T06:20:07;101370.00;;;-1.00
24639;BMP180;1641;51.306;12.384;2023-03-01T06:22:33;101370.00;;;-0.70
24639;BMP180;1641;51.306;12.384;2023-03-01T06:24:58;101366.00;;;-0.70
24639;BMP180;1641;51.306;12.384;2023-03-01T06:27:23;101376.00;;;-0.60
24639;BMP180;1641;51.306;12.384;2023-03-01T06:29:53;101368.00;;;-0.50
24639;BMP180;1641;51.306;12.384;2023-03-01T06:32:18;101342.00;;;-1.00
24639;BMP180;1641;51.306;12.384;2023-03-01T06:34:43;101369.00;;;-1.20
24639;BMP180;1641;51.306;12.384;2023-03-01T06:37:09;101360.00;;;-1.10
24639;BMP180;1641;51.306;12.384;2023-03-01T06:39:34;101357.00;;;-0.90
24639;BMP180;1641;51.306;12.384;2023-03-01T06:42:03;101360.00;;;-0.70
24639;BMP180;1641;51.306;12.384;2023-03-01T06:44:29;101361.00;;;-0.70
24639;BMP180;1641;51.306;12.384;2023-03-01T06:46:54;101367.00;;;-0.60
24639;BMP180;1641;51.306;12.384;2023-03-01T06:49:19;101355.00;;;-0.50
24639;BMP180;1641;51.306;12.384;2023-03-01T06:51:45;101333.00;;;-0.80
24639;BMP180;1641;51.306;12.384;2023-03-01T06:54:13;101357.00;;;-0.40
24639;BMP180;1641;51.306;12.384;2023-03-01T06:56:39;101366.00;;;-0.40
24639;BMP180;1641;51.306;12.384;2023-03-01T06:59:04;101370.00;;;-0.20
24639;BMP180;1641;51.306;12.384;2023-03-01T07:01:33;101369.00;;;-0.10
24639;BMP180;1641;51.306;12.384;2023-03-01T07:03:58;101365.00;;;0.30
24639;BMP180;1641;51.306;12.384;2023-03-01T07:06:32;101333.00;;;0.60
24639;BMP180;1641;51.306;12.384;2023-03-01T07:08:57;101363.00;;;0.60
24639;BMP180;1641;51.306;12.384;2023-03-01T07:11:23;101359.00;;;0.60
24639;BMP180;1641;51.306;12.384;2023-03-01T07:13:52;101351.00;;;0.40
24639;BMP180;1641;51.306;12.384;2023-03-01T07:16:17;101361.00;;;0.00
24639;BMP180;1641;51.306;12.384;2023-03-01T07:18:42;101349.00;;;-0.10
24639;BMP180;1641;51.306;12.384;2023-03-01T07:21:09;101362.00;;;-0.10
24639;BMP180;1641;51.306;12.384;2023-03-01T07:23:36;101357.00;;;0.90
24639;BMP180;1641;51.306;12.384;2023-03-01T07:26:04;101346.00;;;2.10
24639;BMP180;1641;51.306;12.384;2023-03-01T07:28:29;101345.00;;;3.70
24639;BMP180;1641;51.306;12.384;2023-03-01T07:31:01;101350.00;;;4.90
24639;BMP180;1641;51.306;12.384;2023-03-01T07:33:26;101347.00;;;6.50
24639;BMP180;1641;51.306;12.384;2023-03-01T07:35:56;101321.00;;;7.90
24639;BMP180;1641;51.306;12.384;2023-03-01T07:38:22;101349.00;;;9.10
24639;BMP180;1641;51.306;12.384;2023-03-01T07:40:48;101352.00;;;8.70
24639;BMP180;1641;51.306;12.384;2023-03-01T07:43:13;101345.00;;;9.00
24639;BMP180;1641;51.306;12.384;2023-03-01T07:45:38;101349.00;;;8.80
24639;BMP180;1641;51.306;12.384;2023-03-01T07:48:04;101285.00;;;8.50
24639;BMP180;1641;51.306;12.384;2023-03-01T07:50:32;101344.00;;;8.70
24639;BMP180;1641;51.306;12.384;2023-03-01T07:52:57;101357.00;;;8.40
24639;BMP180;1641;51.306;12.384;2023-03-01T07:55:23;101345.00;;;7.70
24639;BMP180;1641;51.306;12.384;2023-03-01T07:57:48;101347.00;;;7.00
24639;BMP180;1641;51.306;12.384;2023-03-01T08:00:19;101317.00;;;5.90
24639;BMP180;1641;51.306;12.384;2023-03-01T08:02:45;101349.00;;;5.40
24639;BMP180;1641;51.306;12.384;2023-03-01T08:05:10;101360.00;;;5.20
24639;BMP180;1641;51.306;12.384;2023-03-01T08:07:38;101338.00;;;7.00
24639;BMP180;1641;51.306;12.384;2023-03-01T08:10:04;101343.00;;;7.60
24639;BMP180;1641;51.306;12.384;2023-03-01T08:12:32;101349.00;;;7.80
24639;BMP180;1641;51.306;12.384;2023-03-01T08:14:57;101341.00;;;8.40
24639;BMP180;1641;51.306;12.384;2023-03-01T08:17:23;101352.00;;;9.60
24639;BMP180;1641;51.306;12.384;2023-03-01T08:19:48;101352.00;;;8.60
24639;BMP180;1641;51.306;12.384;2023-03-01T08:22:13;101343.00;;;8.30
24639;BMP180;1641;51.306;12.384;2023-03-01T08:24:38;101348.00;;;6.60
24639;BMP180;1641;51.306;12.384;2023-03-01T08:27:04;101346.00;;;6.90
24639;BMP180;1641;51.306;12.384;2023-03-01T08:29:33;101325.00;;;5.70
24639;BMP180;1641;51.306;12.384;2023-03-01T08:31:59;101338.00;;;6.80
24639;BMP180;1641;51.306;12.384;2023-03-01T08:34:25;101342.00;;;7.50
24639;BMP180;1641;51.306;12.384;2023-03-01T08:36:50;101341.00;;;8.30
24639;BMP180;1641;51.306;12.384;2023-03-01T08:39:19;101280.00;;;9.70
24639;BMP180;1641;51.306;12.384;2023-03-01T08:41:45;101289.00;;;9.40
24639;BMP180;1641;51.306;12.384;2023-03-01T08:44:12;101339.00;;;10.70
24639;BMP180;1641;51.306;12.384;2023-03-01T08:46:40;101328.00;;;8.90
24639;BMP180;1641;51.306;12.384;2023-03-01T08:49:07;101337.00;;;8.90
24639;BMP180;1641;51.306;12.384;2023-03-01T08:51:35;101342.00;;;8.80
24639;BMP180;1641;51.306;12.384;2023-03-01T08:54:21;101326.00;;;9.80
24639;BMP180;1641;51.306;12.384;2023-03-01T08:56:47;101330.00;;;11.10
24639;BMP180;1641;51.306;12.384;2023-03-01T08:59:13;101333.00;;;12.10
24639;BMP180;1641;51.306;12.384;2023-03-01T09:01:38;101298.00;;;11.20
24639;BMP180;1641;51.306;12.384;2023-03-01T09:04:05;101321.00;;;8.50
24639;BMP180;1641;51.306;12.384;2023-03-01T09:06:32;101327.00;;;9.90
24639;BMP180;1641;51.306;12.384;2023-03-01T09:09:01;101323.00;;;10.80
24639;BMP180;1641;51.306;12.384;2023-03-01T09:11:28;101321.00;;;12.10
24639;BMP180;1641;51.306;12.384;2023-03-01T09:13:53;101316.00;;;10.80
24639;BMP180;1641;51.306;12.384;2023-03-01T09:16:22;101321.00;;;9.20
24639;BMP180;1641;51.306;12.384;2023-03-01T09:18:53;101316.00;;;9.10
24639;BMP180;1641;51.306;12.384;2023-03-01T09:21:19;101317.00;;;9.00
24639;BMP180;1641;51.306;12.384;2023-03-01T09:23:46;101325.00;;;10.20
24639;BMP180;1641;51.306;12.384;2023-03-01T09:26:20;101305.00;;;11.20
24639;BMP180;1641;51.306;12.384;2023-03-01T09:28:52;101311.00;;;11.20
24639;BMP180;1641;51.306;12.384;2023-03-01T09:31:20;101308.00;;;9.30
24639;BMP180;1641;51.306;12.384;2023-03-01T09:33:53;101295.00;;;8.90
24639;BMP180;1641;51.306;12.384;2023-03-01T09:36:21;101299.00;;;9.10
24639;BMP180;1641;51.306;12.384;2023-03-01T09:38:47;101310.00;;;9.70
24639;BMP180;1641;51.306;12.384;2023-03-01T09:41:46;101305.00;;;7.80
24639;BMP180;1641;51.306;12.384;2023-03-01T09:46:47;101302.00;;;7.20
24639;BMP180;1641;51.306;12.384;2023-03-01T09:49:19;101281.00;;;4.90
24639;BMP180;1641;51.306;12.384;2023-03-01T09:52:03;101291.00;;;4.40
24639;BMP180;1641;51.306;12.384;2023-03-01T09:54:31;101300.00;;;4.70
24639;BMP180;1641;51.306;12.384;2023-03-01T09:57:17;101293.00;;;4.60
24639;BMP180;1641;51.306;12.384;2023-03-01T09:59:56;101299.00;;;4.60
24639;BMP180;1641;51.306;12.384;2023-03-01T10:04:55;101294.00;;;3.70
24639;BMP180;1641;51.306;12.384;2023-03-01T10:10:23;101300.00;;;4.20
24639;BMP180;1641;51.306;12.384;2023-03-01T10:12:51;101276.00;;;3.80
24639;BMP180;1641;51.306;12.384;2023-03-01T10:15:20;101297.00;;;3.60
24639;BMP180;1641;51.306;12.384;2023-03-01T10:17:57;101294.00;;;3.90
24639;BMP180;1641;51.306;12.384;2023-03-01T10:20:41;101285.00;;;4.40
24639;BMP180;1641;51.306;12.384;2023-03-01T10:23:08;101292.00;;;4.50
24639;BMP180;1641;51.306;12.384;2023-03-01T10:25:56;101294.00;;;4.60
24639;BMP180;1641;51.306;12.384;2023-03-01T10:30:54;101296.00;;;4.50
24639;BMP180;1641;51.306;12.384;2023-03-01T10:33:23;101287.00;;;4.60
24639;BMP180;1641;51.306;12.384;2023-03-01T10:35:49;101282.00;;;4.70
24639;BMP180;1641;51.306;12.384;2023-03-01T10:38:16;101243.00;;;4.40
24639;BMP180;1641;51.306;12.384;2023-03-01T10:43:23;101243.00;;;3.60
24639;BMP180;1641;51.306;12.384;2023-03-01T10:45:49;101244.00;;;4.40
24639;BMP180;1641;51.306;12.384;2023-03-01T10:48:19;101278.00;;;4.50
24639;BMP180;1641;51.306;12.384;2023-03-01T10:53:34;101269.00;;;4.00
24639;BMP180;1641;51.306;12.384;2023-03-01T10:56:12;101279.00;;;4.10
24639;BMP180;1641;51.306;12.384;2023-03-01T11:04:12;101273.00;;;4.40
24639;BMP180;1641;51.306;12.384;2023-03-01T11:06:40;101264.00;;;4.60
24639;BMP180;1641;51.306;12.384;2023-03-01T11:11:38;101248.00;;;4.80
24639;BMP180;1641;51.306;12.384;2023-03-01T11:14:16;101232.00;;;4.70
24639;BMP180;1641;51.306;12.384;2023-03-01T11:16:44;101268.00;;;5.20
24639;BMP180;1641;51.306;12.384;2023-03-01T11:24:12;101248.00;;;5.20
24639;BMP180;1641;51.306;12.384;2023-03-01T11:26:44;101244.00;;;5.70
24639;BMP180;1641;51.306;12.384;2023-03-01T11:29:33;101212.00;;;5.50
24639;BMP180;1641;51.306;12.384;2023-03-01T11:32:03;101254.00;;;5.00
24639;BMP180;1641;51.306;12.384;2023-03-01T11:34:40;101225.00;;;5.10
24639;BMP180;1641;51.306;12.384;2023-03-01T11:37:15;101246.00;;;4.60
24639;BMP180;1641;51.306;12.384;2023-03-01T11:39:53;101250.00;;;5.20
24639;BMP180;1641;51.306;12.384;2023-03-01T11:42:26;101230.00;;;5.30
24639;BMP180;1641;51.306;12.384;2023-03-01T11:44:55;101250.00;;;5.60
24639;BMP180;1641;51.306;12.384;2023-03-01T11:53:00;101238.00;;;5.80
24639;BMP180;1641;51.306;12.384;2023-03-01T11:58:50;101225.00;;;5.30
24639;BMP180;1641;51.306;12.384;2023-03-01T12:04:36;101199.00;;;4.80
24639;BMP180;1641;51.306;12.384;2023-03-01T12:07:20;101226.00;;;5.10
24639;BMP180;1641;51.306;12.384;2023-03-01T12:10:16;101210.00;;;5.30
24639;BMP180;1641;51.306;12.384;2023-03-01T12:15:58;101214.00;;;5.20
24639;BMP180;1641;51.306;12.384;2023-03-01T12:27:42;101208.00;;;4.80
24639;BMP180;1641;51.306;12.384;2023-03-01T12:33:16;101195.00;;;5.40
24639;BMP180;1641;51.306;12.384;2023-03-01T12:47:58;101172.00;;;6.40
24639;BMP180;1641;51.306;12.384;2023-03-01T12:50:40;101166.00;;;6.10
24639;BMP180;1641;51.306;12.384;2023-03-01T12:53:25;101121.00;;;5.40
24639;BMP180;1641;51.306;12.384;2023-03-01T12:56:04;101115.00;;;5.60
24639;BMP180;1641;51.306;12.384;2023-03-01T12:58:33;101144.00;;;5.40
24639;BMP180;1641;51.306;12.384;2023-03-01T13:07:04;101135.00;;;6.20
24639;BMP180;1641;51.306;12.384;2023-03-01T13:09:39;101124.00;;;6.40
24639;BMP180;1641;51.306;12.384;2023-03-01T13:23:13;101155.00;;;6.90
24639;BMP180;1641;51.306;12.384;2023-03-01T13:26:03;101151.00;;;6.80
24639;BMP180;1641;51.306;12.384;2023-03-01T13:30:56;101157.00;;;6.40
24639;BMP180;1641;51.306;12.384;2023-03-01T13:35:54;101140.00;;;7.10
24639;BMP180;1641;51.306;12.384;2023-03-01T13:38:54;101142.00;;;6.80
24639;BMP180;1641;51.306;12.384;2023-03-01T13:44:26;101131.00;;;6.90
24639;BMP180;1641;51.306;12.384;2023-03-01T13:49:53;101138.00;;;7.10
24639;BMP180;1641;51.306;12.384;2023-03-01T13:52:42;101120.00;;;7.00
24639;BMP180;1641;51.306;12.384;2023-03-01T13:55:18;101121.00;;;6.90
24639;BMP180;1641;51.306;12.384;2023-03-01T13:57:47;101126.00;;;7.20
24639;BMP180;1641;51.306;12.384;2023-03-01T14:00:38;101123.00;;;6.80
24639;BMP180;1641;51.306;12.384;2023-03-01T14:03:24;101116.00;;;6.90
24639;BMP180;1641;51.306;12.384;2023-03-01T14:06:15;101121.00;;;6.70
24639;BMP180;1641;51.306;12.384;2023-03-01T14:08:44;101121.00;;;7.40
24639;BMP180;1641;51.306;12.384;2023-03-01T14:17:09;101107.00;;;7.40
24639;BMP180;1641;51.306;12.384;2023-03-01T14:19:41;101096.00;;;7.40
24639;BMP180;1641;51.306;12.384;2023-03-01T14:22:19;101099.00;;;7.10
24639;BMP180;1641;51.306;12.384;2023-03-01T14:27:15;101085.00;;;7.10
24639;BMP180;1641;51.306;12.384;2023-03-01T14:29:41;101057.00;;;7.60
24639;BMP180;1641;51.306;12.384;2023-03-01T14:32:32;101085.00;;;7.60
24639;BMP180;1641;51.306;12.384;2023-03-01T14:34:59;101046.00;;;7.00
24639;BMP180;1641;51.306;12.384;2023-03-01T14:37:27;101084.00;;;7.50
24639;BMP180;1641;51.306;12.384;2023-03-01T14:39:53;101078.00;;;7.90
24639;BMP180;1641;51.306;12.384;2023-03-01T14:42:21;101078.00;;;7.30
24639;BMP180;1641;51.306;12.384;2023-03-01T14:44:50;101070.00;;;7.10
24639;BMP180;1641;51.306;12.384;2023-03-01T14:47:25;101062.00;;;7.10
24639;BMP180;1641;51.306;12.384;2023-03-01T14:49:57;101071.00;;;7.00
24639;BMP180;1641;51.306;12.384;2023-03-01T14:52:29;101065.00;;;7.50
24639;BMP180;1641;51.306;12.384;2023-03-01T14:54:56;101066.00;;;7.30
24639;BMP180;1641;51.306;12.384;2023-03-01T14:57:23;101070.00;;;7.40
24639;BMP180;1641;51.306;12.384;2023-03-01T14:59:51;101059.00;;;7.60
24639;BMP180;1641;51.306;12.384;2023-03-01T15:02:21;101074.00;;;8.00
24639;BMP180;1641;51.306;12.384;2023-03-01T15:04:49;101043.00;;;7.30
24639;BMP180;1641;51.306;12.384;2023-03-01T15:07:16;101068.00;;;7.20
24639;BMP180;1641;51.306;12.384;2023-03-01T15:09:42;101022.00;;;7.00
24639;BMP180;1641;51.306;12.384;2023-03-01T15:14:57;101066.00;;;7.50
24639;BMP180;1641;51.306;12.384;2023-03-01T15:17:35;101051.00;;;7.30
24639;BMP180;1641;51.306;12.384;2023-03-01T15:20:06;101044.00;;;7.50
24639;BMP180;1641;51.306;12.384;2023-03-01T15:22:32;101000.00;;;7.80
24639;BMP180;1641;51.306;12.384;2023-03-01T15:24:58;101053.00;;;7.50
24639;BMP180;1641;51.306;12.384;2023-03-01T15:27:25;101049.00;;;7.80
24639;BMP180;1641;51.306;12.384;2023-03-01T15:29:59;101019.00;;;7.70
24639;BMP180;1641;51.306;12.384;2023-03-01T15:34:53;101024.00;;;8.00
24639;BMP180;1641;51.306;12.384;2023-03-01T15:37:45;101044.00;;;7.70
24639;BMP180;1641;51.306;12.384;2023-03-01T15:42:49;101048.00;;;7.80
24639;BMP180;1641;51.306;12.384;2023-03-01T15:47:50;101032.00;;;7.60
24639;BMP180;1641;51.306;12.384;2023-03-01T15:52:51;101011.00;;;7.60
24639;BMP180;1641;51.306;12.384;2023-03-01T15:55:22;101054.00;;;7.60
24639;BMP180;1641;51.306;12.384;2023-03-01T15:57:48;101048.00;;;7.70
24639;BMP180;1641;51.306;12.384;2023-03-01T16:00:15;101050.00;;;7.70
24639;BMP180;1641;51.306;12.384;2023-03-01T16:02:42;101050.00;;;7.30
24639;BMP180;1641;51.306;12.384;2023-03-01T16:05:21;100985.00;;;7.20
24639;BMP180;1641;51.306;12.384;2023-03-01T16:07:48;101048.00;;;7.00
24639;BMP180;1641;51.306;12.384;2023-03-01T16:10:13;100970.00;;;6.70
24639;BMP180;1641;51.306;12.384;2023-03-01T16:12:39;101016.00;;;6.90
24639;BMP180;1641;51.306;12.384;2023-03-01T16:15:08;101057.00;;;6.90
24639;BMP180;1641;51.306;12.384;2023-03-01T16:17:38;101048.00;;;6.70
24639;BMP180;1641;51.306;12.384;2023-03-01T16:20:04;101044.00;;;6.70
24639;BMP180;1641;51.306;12.384;2023-03-01T16:22:29;101052.00;;;7.10
24639;BMP180;1641;51.306;12.384;2023-03-01T16:24:55;101057.00;;;7.00